createdAt,value
2023-05-05T00:00:27.045Z,26.07
2023-05-05T00:01:27.054Z,28.40
2023-05-05T00:02:27.103Z,27.51
2023-05-05T00:03:27.169Z,30.14
2023-05-05T00:04:27.065Z,28.15
2023-05-05T00:05:27.083Z,28.03
2023-05-05T00:06:27.089Z,29.44
2023-05-05T00:07:27.093Z,26.66
2023-05-05T00:08:27.107Z,27.97
2023-05-05T00:09:27.110Z,30.85
2023-05-05T00:10:27.059Z,27.22
2023-05-05T00:11:27.105Z,27.14
2023-05-05T00:12:27.068Z,29.57
2023-05-05T00:13:27.094Z,27.86
2023-05-05T00:14:27.092Z,28.96
2023-05-05T00:15:27.062Z,29.66
2023-05-05T00:16:27.111Z,32.45
2023-05-05T00:17:27.140Z,29.15
2023-05-05T00:18:27.107Z,28.48
2023-05-05T00:19:27.107Z,29.67
2023-05-05T00:20:27.084Z,28.74
2023-05-05T00:21:27.079Z,26.67
2023-05-05T00:22:27.143Z,27.97
2023-05-05T00:23:27.109Z,28.10
2023-05-05T00:24:27.098Z,27.91
2023-05-05T00:25:27.128Z,29.28
2023-05-05T00:26:27.125Z,30.79
2023-05-05T00:27:27.157Z,29.47
2023-05-05T00:28:27.146Z,29.45
2023-05-05T00:29:27.115Z,31.46
2023-05-05T00:30:27.163Z,29.83
2023-05-05T00:31:27.211Z,25.55
2023-05-05T00:32:27.202Z,32.83
2023-05-05T00:33:27.177Z,27.70
2023-05-05T00:34:27.184Z,31.29
2023-05-05T00:35:27.188Z,28.82
2023-05-05T00:36:27.171Z,31.00
2023-05-05T00:37:27.209Z,31.87
2023-05-05T00:38:27.159Z,28.42
2023-05-05T00:39:27.206Z,29.93
2023-05-05T00:40:27.186Z,31.79
2023-05-05T00:41:27.213Z,30.82
2023-05-05T00:42:27.260Z,28.86
2023-05-05T00:43:27.191Z,27.56
2023-05-05T00:44:27.184Z,29.08
2023-05-05T00:45:27.224Z,30.24
2023-05-05T00:46:27.337Z,27.96
2023-05-05T00:47:27.274Z,31.20
2023-05-05T00:48:27.224Z,29.00
2023-05-05T00:49:27.293Z,28.83
2023-05-05T00:50:27.273Z,26.80
2023-05-05T00:51:27.263Z,28.10
2023-05-05T00:52:27.271Z,29.10
2023-05-05T00:53:27.292Z,29.22
2023-05-05T00:54:27.282Z,27.02
2023-05-05T00:55:27.302Z,31.43
2023-05-05T00:56:27.349Z,28.71
2023-05-05T00:57:27.279Z,27.24
2023-05-05T00:58:27.267Z,28.91
2023-05-05T00:59:27.286Z,32.42
2023-05-05T01:00:27.306Z,29.29
2023-05-05T01:01:27.416Z,29.40
2023-05-05T01:02:28.278Z,29.42
2023-05-05T01:03:27.403Z,31.30
2023-05-05T01:04:27.335Z,29.96
2023-05-05T01:05:27.332Z,28.28
2023-05-05T01:06:27.349Z,28.83
2023-05-05T01:07:27.333Z,29.52
2023-05-05T01:08:27.347Z,30.06
2023-05-05T01:09:27.348Z,25.75
2023-05-05T01:10:27.525Z,28.74
2023-05-05T01:11:27.381Z,27.85
2023-05-05T01:12:27.350Z,27.25
2023-05-05T01:13:27.366Z,29.57
2023-05-05T01:14:27.381Z,27.73
2023-05-05T01:15:27.365Z,30.09
2023-05-05T01:16:27.436Z,27.88
2023-05-05T01:17:27.443Z,26.70
2023-05-05T01:18:27.400Z,26.69
2023-05-05T01:19:27.401Z,31.32
2023-05-05T01:20:27.425Z,29.02
2023-05-05T01:21:27.451Z,27.05
2023-05-05T01:22:27.461Z,31.38
2023-05-05T01:23:27.448Z,28.65
2023-05-05T01:24:27.461Z,28.05
2023-05-05T01:25:27.471Z,26.97
2023-05-05T01:26:27.480Z,31.48
2023-05-05T01:27:27.507Z,28.57
2023-05-05T01:28:27.488Z,27.76
2023-05-05T01:29:27.502Z,30.95
2023-05-05T01:30:27.497Z,32.81
2023-05-05T01:31:27.512Z,28.90
2023-05-05T01:32:27.525Z,34.68
2023-05-05T01:33:27.524Z,29.22
2023-05-05T01:34:27.528Z,29.34
2023-05-05T01:35:27.550Z,25.99
2023-05-05T01:36:27.556Z,28.95
2023-05-05T01:37:27.609Z,29.87
2023-05-05T01:38:27.617Z,29.61
2023-05-05T01:39:27.604Z,28.32
2023-05-05T01:40:27.614Z,30.48
2023-05-05T01:41:27.605Z,30.28
2023-05-05T01:42:27.627Z,27.69
2023-05-05T01:43:27.634Z,30.08
2023-05-05T01:44:27.666Z,28.29
2023-05-05T01:45:27.705Z,28.10
2023-05-05T01:46:27.672Z,26.17
2023-05-05T01:47:27.713Z,28.63
2023-05-05T01:48:27.690Z,24.04
2023-05-05T01:49:27.672Z,29.71
2023-05-05T01:50:27.708Z,29.38
2023-05-05T01:51:27.744Z,32.97
2023-05-05T01:52:27.719Z,28.26
2023-05-05T01:53:27.753Z,31.58
2023-05-05T01:54:27.757Z,31.81
2023-05-05T01:55:27.788Z,32.97
2023-05-05T01:56:27.799Z,30.78
2023-05-05T01:57:27.788Z,32.99
2023-05-05T01:58:27.795Z,29.77
2023-05-05T01:59:27.801Z,31.77
2023-05-05T02:00:27.833Z,32.02
2023-05-05T02:01:27.893Z,29.55
2023-05-05T02:02:28.437Z,31.31
2023-05-05T02:03:27.905Z,33.04
2023-05-05T02:04:27.873Z,33.18
2023-05-05T02:05:27.926Z,31.75
2023-05-05T02:06:27.923Z,32.29
2023-05-05T02:07:27.950Z,31.17
2023-05-05T02:08:27.932Z,31.08
2023-05-05T02:09:27.948Z,29.54
2023-05-05T02:10:27.987Z,32.64
2023-05-05T02:11:27.993Z,30.04
2023-05-05T02:12:27.998Z,35.73
2023-05-05T02:13:28.039Z,33.70
2023-05-05T02:14:28.006Z,30.95
2023-05-05T02:15:28.029Z,29.95
2023-05-05T02:16:28.056Z,32.12
2023-05-05T02:17:28.359Z,28.65
2023-05-05T02:18:28.068Z,31.55
2023-05-05T02:19:28.087Z,29.70
2023-05-05T02:20:28.116Z,29.94
2023-05-05T02:21:28.128Z,31.20
2023-05-05T02:22:28.136Z,32.40
2023-05-05T02:23:28.175Z,30.16
2023-05-05T02:24:28.208Z,33.72
2023-05-05T02:25:28.199Z,27.48
2023-05-05T02:26:28.216Z,34.33
2023-05-05T02:27:28.237Z,31.15
2023-05-05T02:28:28.349Z,30.46
2023-05-05T02:29:28.277Z,30.60
2023-05-05T02:30:28.291Z,29.92
2023-05-05T02:31:28.367Z,33.25
2023-05-05T02:32:28.365Z,30.71
2023-05-05T02:33:28.398Z,30.70
2023-05-05T02:34:28.425Z,33.17
2023-05-05T02:35:28.459Z,31.88
2023-05-05T02:36:28.485Z,26.99
2023-05-05T02:37:28.465Z,28.92
2023-05-05T02:38:28.829Z,30.01
2023-05-05T02:39:28.524Z,28.70
2023-05-05T02:40:28.558Z,30.43
2023-05-05T02:41:28.571Z,29.76
2023-05-05T02:42:28.605Z,29.26
2023-05-05T02:43:28.617Z,33.25
2023-05-05T02:44:28.656Z,33.64
2023-05-05T02:45:28.664Z,29.34
2023-05-05T02:46:28.745Z,29.22
2023-05-05T02:47:28.763Z,31.39
2023-05-05T02:48:28.856Z,31.28
2023-05-05T02:49:28.779Z,27.86
2023-05-05T02:50:28.783Z,32.10
2023-05-05T02:51:28.853Z,31.77
2023-05-05T02:52:28.851Z,28.96
2023-05-05T02:53:28.884Z,28.28
2023-05-05T02:54:28.946Z,28.96
2023-05-05T02:55:28.973Z,29.95
2023-05-05T02:56:28.984Z,29.71
2023-05-05T02:57:28.993Z,26.31
2023-05-05T02:58:29.056Z,30.79
2023-05-05T02:59:29.050Z,30.06
2023-05-05T03:00:29.085Z,29.03
2023-05-05T03:01:29.197Z,28.82
2023-05-05T03:02:29.280Z,30.50
2023-05-05T03:03:29.429Z,32.90
2023-05-05T03:04:29.256Z,29.07
2023-05-05T03:05:29.244Z,27.51
2023-05-05T03:06:29.256Z,29.88
2023-05-05T03:07:29.298Z,29.69
2023-05-05T03:08:29.343Z,31.44
2023-05-05T03:09:29.381Z,34.06
2023-05-05T03:10:29.391Z,29.95
2023-05-05T03:11:29.395Z,28.99
2023-05-05T03:12:29.412Z,33.51
2023-05-05T03:13:29.451Z,31.28
2023-05-05T03:14:32.042Z,27.06
2023-05-05T03:15:29.483Z,34.31
2023-05-05T03:16:29.505Z,28.79
2023-05-05T03:17:29.457Z,28.58
2023-05-05T03:18:29.417Z,27.01
2023-05-05T03:19:29.428Z,30.83
2023-05-05T03:20:29.377Z,30.47
2023-05-05T03:21:29.404Z,27.82
2023-05-05T03:22:29.383Z,30.96
2023-05-05T03:23:29.411Z,32.33
2023-05-05T03:24:29.383Z,27.86
2023-05-05T03:25:29.394Z,26.75
2023-05-05T03:26:29.345Z,29.82
2023-05-05T03:27:29.407Z,28.51
2023-05-05T03:28:29.361Z,27.89
2023-05-05T03:29:29.326Z,30.69
2023-05-05T03:30:29.337Z,30.27
2023-05-05T03:31:29.488Z,31.30
2023-05-05T03:32:29.341Z,31.35
2023-05-05T03:33:29.344Z,30.32
2023-05-05T03:34:29.304Z,32.64
2023-05-05T03:35:29.367Z,33.14
2023-05-05T03:36:29.613Z,30.08
2023-05-05T03:37:29.284Z,31.28
2023-05-05T03:38:29.272Z,28.67
2023-05-05T03:39:29.238Z,26.55
2023-05-05T03:40:40.468Z,27.99
2023-05-05T03:41:30.241Z,28.28
2023-05-05T03:42:29.284Z,28.64
2023-05-05T03:43:29.262Z,29.04
2023-05-05T03:44:29.223Z,29.44
2023-05-05T03:45:29.216Z,30.66
2023-05-05T03:46:29.229Z,31.26
2023-05-05T03:47:29.229Z,26.64
2023-05-05T03:48:29.191Z,28.68
2023-05-05T03:49:29.207Z,29.70
2023-05-05T03:50:29.190Z,28.68
2023-05-05T03:51:29.172Z,27.53
2023-05-05T03:52:29.168Z,29.58
2023-05-05T03:53:29.149Z,32.40
2023-05-05T03:54:29.154Z,25.75
2023-05-05T03:55:29.160Z,28.32
2023-05-05T03:56:29.128Z,28.65
2023-05-05T03:57:29.099Z,31.67
2023-05-05T03:58:29.112Z,30.26
2023-05-05T03:59:29.077Z,27.30
2023-05-05T04:00:29.125Z,27.13
2023-05-05T04:01:29.123Z,29.39
2023-05-05T04:02:29.241Z,27.26
2023-05-05T04:03:29.232Z,28.34
2023-05-05T04:04:29.330Z,27.97
2023-05-05T04:05:29.276Z,33.38
2023-05-05T04:06:29.273Z,27.78
2023-05-05T04:07:29.275Z,27.46
2023-05-05T04:08:29.428Z,27.65
2023-05-05T04:09:29.337Z,28.97
2023-05-05T04:10:29.345Z,31.80
2023-05-05T04:11:29.364Z,29.68
2023-05-05T04:12:29.421Z,30.50
2023-05-05T04:13:29.423Z,30.71
2023-05-05T04:14:29.478Z,29.74
2023-05-05T04:15:29.462Z,30.64
2023-05-05T04:16:29.645Z,30.51
2023-05-05T04:17:29.535Z,28.98
2023-05-05T04:18:29.558Z,29.74
2023-05-05T04:19:29.554Z,29.37
2023-05-05T04:20:29.572Z,31.38
2023-05-05T04:21:29.627Z,32.29
2023-05-05T04:22:29.645Z,31.74
2023-05-05T04:23:29.661Z,31.52
2023-05-05T04:24:29.714Z,30.90
2023-05-05T04:25:29.751Z,32.29
2023-05-05T04:26:29.754Z,31.35
2023-05-05T04:27:29.786Z,29.33
2023-05-05T04:28:29.838Z,30.21
2023-05-05T04:29:29.840Z,29.48
2023-05-05T04:30:29.886Z,32.26
2023-05-05T04:31:29.926Z,29.82
2023-05-05T04:32:29.975Z,33.86
2023-05-05T04:33:29.929Z,29.82
2023-05-05T04:34:29.970Z,31.60
2023-05-05T04:35:30.050Z,30.84
2023-05-05T04:36:30.029Z,33.72
2023-05-05T04:37:30.076Z,30.42
2023-05-05T04:38:30.159Z,33.57
2023-05-05T04:39:30.152Z,29.46
2023-05-05T04:40:30.166Z,31.84
2023-05-05T04:41:30.264Z,31.69
2023-05-05T04:42:30.234Z,26.99
2023-05-05T04:43:30.244Z,33.02
2023-05-05T04:44:30.295Z,32.34
2023-05-05T04:45:30.300Z,28.34
2023-05-05T04:46:30.353Z,30.59
2023-05-05T04:47:30.351Z,31.34
2023-05-05T04:48:30.373Z,31.17
2023-05-05T04:49:30.408Z,27.30
2023-05-05T04:50:30.417Z,29.07
2023-05-05T04:51:30.435Z,29.61
2023-05-05T04:52:30.480Z,27.82
2023-05-05T04:53:30.495Z,26.61
2023-05-05T04:54:30.554Z,28.74
2023-05-05T04:55:30.563Z,31.38
2023-05-05T04:56:30.568Z,31.46
2023-05-05T04:57:30.620Z,29.48
2023-05-05T04:58:30.658Z,29.17
2023-05-05T04:59:30.675Z,30.78
2023-05-05T05:00:30.691Z,30.37
2023-05-05T05:01:30.753Z,29.94
2023-05-05T05:02:30.787Z,29.54
2023-05-05T05:03:30.882Z,28.80
2023-05-05T05:04:30.838Z,27.62
2023-05-05T05:05:30.847Z,28.89
2023-05-05T05:06:30.893Z,30.91
2023-05-05T05:07:30.914Z,26.22
2023-05-05T05:08:30.956Z,29.51
2023-05-05T05:09:30.987Z,27.70
2023-05-05T05:10:31.047Z,25.95
2023-05-05T05:11:31.067Z,27.86
2023-05-05T05:12:31.135Z,27.68
2023-05-05T05:13:31.175Z,25.96
2023-05-05T05:14:31.164Z,25.29
2023-05-05T05:15:31.187Z,31.49
2023-05-05T05:16:31.247Z,27.55
2023-05-05T05:17:31.307Z,28.13
2023-05-05T05:18:31.319Z,27.93
2023-05-05T05:19:31.333Z,29.14
2023-05-05T05:20:31.401Z,25.77
2023-05-05T05:21:31.425Z,28.56
2023-05-05T05:22:31.462Z,30.18
2023-05-05T05:23:31.500Z,30.02
2023-05-05T05:24:31.591Z,25.00
2023-05-05T05:25:31.602Z,28.17
2023-05-05T05:26:31.636Z,30.18
2023-05-05T05:27:31.706Z,26.06
2023-05-05T05:28:31.942Z,28.78
2023-05-05T05:29:31.754Z,27.38
2023-05-05T05:30:31.814Z,32.56
2023-05-05T05:31:31.922Z,27.10
2023-05-05T05:32:31.938Z,24.38
2023-05-05T05:33:32.433Z,31.85
2023-05-05T05:34:31.998Z,28.85
2023-05-05T05:35:32.065Z,29.95
2023-05-05T05:36:32.078Z,30.27
2023-05-05T05:37:32.145Z,28.69
2023-05-05T05:38:32.432Z,29.37
2023-05-05T05:39:32.243Z,33.40
2023-05-05T05:40:32.304Z,33.74
2023-05-05T05:41:32.390Z,36.67
2023-05-05T05:42:32.699Z,39.76
2023-05-05T05:43:32.472Z,39.87
2023-05-05T05:44:32.498Z,40.45
2023-05-05T05:45:32.524Z,45.65
2023-05-05T05:46:32.684Z,44.63
2023-05-05T05:47:32.664Z,46.98
2023-05-05T05:48:32.656Z,48.29
2023-05-05T05:49:32.711Z,54.96
2023-05-05T05:50:32.742Z,53.96
2023-05-05T05:51:32.778Z,45.43
2023-05-05T05:52:32.811Z,46.91
2023-05-05T05:53:32.871Z,56.43
2023-05-05T05:54:32.872Z,62.99
2023-05-05T05:55:32.904Z,50.02
2023-05-05T05:56:32.906Z,51.87
2023-05-05T05:57:33.448Z,52.27
2023-05-05T05:58:32.972Z,61.74
2023-05-05T05:59:32.908Z,69.98
2023-05-05T06:00:32.905Z,71.24
2023-05-05T06:01:32.890Z,63.09
2023-05-05T06:02:32.998Z,81.71
2023-05-05T06:03:33.088Z,99.18
2023-05-05T06:04:33.083Z,103.05
2023-05-05T06:05:33.101Z,105.41
2023-05-05T06:06:33.132Z,115.58
2023-05-05T06:07:33.278Z,122.58
2023-05-05T06:08:33.953Z,126.55
2023-05-05T06:09:33.238Z,133.51
2023-05-05T06:10:33.775Z,129.33
2023-05-05T06:11:33.324Z,131.09
2023-05-05T06:12:33.411Z,139.40
2023-05-05T06:13:33.383Z,145.33
2023-05-05T06:14:33.438Z,145.35
2023-05-05T06:15:33.404Z,147.26
2023-05-05T06:16:33.496Z,152.32
2023-05-05T06:17:33.400Z,151.96
2023-05-05T06:18:33.407Z,154.92
2023-05-05T06:19:33.402Z,154.77
2023-05-05T06:20:33.397Z,161.21
2023-05-05T06:21:33.378Z,160.28
2023-05-05T06:22:33.406Z,161.45
2023-05-05T06:23:33.376Z,166.88
2023-05-05T06:24:33.443Z,168.78
2023-05-05T06:25:33.434Z,167.76
2023-05-05T06:26:33.359Z,171.75
2023-05-05T06:27:33.402Z,177.99
2023-05-05T06:28:33.390Z,171.39
2023-05-05T06:29:33.401Z,176.56
2023-05-05T06:30:33.465Z,179.74
2023-05-05T06:31:33.492Z,183.27
2023-05-05T06:32:33.610Z,181.71
2023-05-05T06:33:33.551Z,180.64
2023-05-05T06:34:33.628Z,166.09
2023-05-05T06:35:33.640Z,166.39
2023-05-05T06:36:33.745Z,169.15
2023-05-05T06:37:33.738Z,173.84
2023-05-05T06:38:33.751Z,172.18
2023-05-05T06:39:33.800Z,175.34
2023-05-05T06:40:33.861Z,177.65
2023-05-05T06:41:33.933Z,180.61
2023-05-05T06:42:34.017Z,174.91
2023-05-05T06:43:34.057Z,185.12
2023-05-05T06:44:34.144Z,190.36
2023-05-05T06:45:34.175Z,191.39
2023-05-05T06:46:34.240Z,194.30
2023-05-05T06:47:34.318Z,195.88
2023-05-05T06:48:34.539Z,199.24
2023-05-05T06:49:34.379Z,199.13
2023-05-05T06:50:34.459Z,197.68
2023-05-05T06:51:34.472Z,200.03
2023-05-05T06:52:34.539Z,196.95
2023-05-05T06:53:34.598Z,182.12
2023-05-05T06:54:34.646Z,187.45
2023-05-05T06:55:34.686Z,192.70
2023-05-05T06:56:34.742Z,196.96
2023-05-05T06:57:34.769Z,203.91
2023-05-05T06:58:35.062Z,203.60
2023-05-05T06:59:34.911Z,205.92
2023-05-05T07:00:34.993Z,203.83
2023-05-05T07:01:35.018Z,203.73
2023-05-05T07:02:35.119Z,201.89
2023-05-05T07:03:35.519Z,199.66
2023-05-05T07:04:35.205Z,199.76
2023-05-05T07:05:35.272Z,200.12
2023-05-05T07:06:35.299Z,199.17
2023-05-05T07:07:35.309Z,196.49
2023-05-05T07:08:35.376Z,195.93
2023-05-05T07:09:35.452Z,193.74
2023-05-05T07:10:35.475Z,193.14
2023-05-05T07:11:35.530Z,190.62
2023-05-05T07:12:35.592Z,190.11
2023-05-05T07:13:36.026Z,190.82
2023-05-05T07:14:35.749Z,185.78
2023-05-05T07:15:35.642Z,184.31
2023-05-05T07:16:35.663Z,180.79
2023-05-05T07:17:35.646Z,179.37
2023-05-05T07:18:35.646Z,177.46
2023-05-05T07:19:35.633Z,176.11
2023-05-05T07:20:35.625Z,174.41
2023-05-05T07:21:35.602Z,171.81
2023-05-05T07:22:35.639Z,169.04
2023-05-05T07:23:35.651Z,168.63
2023-05-05T07:24:35.654Z,168.68
2023-05-05T07:25:36.434Z,166.83
2023-05-05T07:26:35.628Z,165.95
2023-05-05T07:27:35.628Z,165.75
2023-05-05T07:28:35.680Z,170.83
2023-05-05T07:29:35.657Z,168.38
2023-05-05T07:30:35.987Z,179.62
2023-05-05T07:31:35.685Z,177.39
2023-05-05T07:32:35.687Z,178.52
2023-05-05T07:33:35.688Z,178.74
2023-05-05T07:34:35.732Z,174.55
2023-05-05T07:35:35.688Z,175.09
2023-05-05T07:36:35.738Z,174.20
2023-05-05T07:37:35.740Z,172.36
2023-05-05T07:38:36.040Z,171.96
2023-05-05T07:39:35.769Z,169.88
2023-05-05T07:40:35.773Z,168.71
2023-05-05T07:41:35.795Z,166.28
2023-05-05T07:42:35.829Z,166.96
2023-05-05T07:43:35.847Z,163.37
2023-05-05T07:44:35.905Z,162.60
2023-05-05T07:45:35.876Z,161.16
2023-05-05T07:46:35.941Z,161.74
2023-05-05T07:47:35.948Z,160.08
2023-05-05T07:48:35.943Z,156.64
2023-05-05T07:49:35.937Z,158.04
2023-05-05T07:50:35.967Z,156.38
2023-05-05T07:51:35.981Z,151.08
2023-05-05T07:52:46.651Z,123.72
2023-05-05T07:53:37.028Z,123.84
2023-05-05T07:54:36.037Z,125.17
2023-05-05T07:55:35.971Z,129.24
2023-05-05T07:56:36.006Z,136.22
2023-05-05T07:57:35.951Z,134.77
2023-05-05T07:58:35.965Z,143.21
2023-05-05T07:59:35.960Z,142.69
2023-05-05T08:00:35.963Z,151.50
2023-05-05T08:01:35.942Z,153.59
2023-05-05T08:02:36.046Z,151.27
2023-05-05T08:03:36.052Z,159.02
2023-05-05T08:04:36.094Z,156.64
2023-05-05T08:05:35.936Z,160.97
2023-05-05T08:06:35.945Z,164.02
2023-05-05T08:07:35.890Z,165.57
2023-05-05T08:08:35.904Z,164.34
2023-05-05T08:09:35.909Z,164.38
2023-05-05T08:10:35.871Z,148.00
2023-05-05T08:11:35.878Z,152.29
2023-05-05T08:12:36.022Z,151.11
2023-05-05T08:13:36.002Z,152.51
2023-05-05T08:14:36.058Z,153.21
2023-05-05T08:15:36.125Z,156.06
2023-05-05T08:16:36.301Z,159.08
2023-05-05T08:17:36.253Z,161.12
2023-05-05T08:18:36.332Z,165.80
2023-05-05T08:19:36.312Z,171.18
2023-05-05T08:20:36.364Z,172.06
2023-05-05T08:21:36.421Z,177.01
2023-05-05T08:22:36.468Z,182.21
2023-05-05T08:23:36.512Z,178.90
2023-05-05T08:24:36.539Z,177.47
2023-05-05T08:25:36.561Z,186.23
2023-05-05T08:26:36.597Z,187.52
2023-05-05T08:27:36.645Z,186.41
2023-05-05T08:28:36.675Z,184.46
2023-05-05T08:29:37.061Z,185.10
2023-05-05T08:30:36.700Z,184.85
2023-05-05T08:31:36.748Z,187.77
2023-05-05T08:32:36.759Z,168.82
2023-05-05T08:33:36.764Z,145.54
2023-05-05T08:34:37.106Z,138.61
2023-05-05T08:35:36.821Z,142.41
2023-05-05T08:36:36.880Z,136.55
2023-05-05T08:37:36.840Z,142.26
2023-05-05T08:38:37.843Z,142.39
2023-05-05T08:39:36.835Z,142.46
2023-05-05T08:40:36.841Z,143.60
2023-05-05T08:41:36.826Z,145.60
2023-05-05T08:42:38.494Z,149.51
2023-05-05T08:43:36.826Z,153.91
2023-05-05T08:44:36.800Z,143.93
2023-05-05T08:45:36.786Z,143.63
2023-05-05T08:46:36.839Z,153.82
2023-05-05T08:47:36.851Z,142.57
2023-05-05T08:48:36.756Z,150.16
2023-05-05T08:49:36.745Z,158.01
2023-05-05T08:50:36.887Z,152.88
2023-05-05T08:51:36.740Z,160.29
2023-05-05T08:52:36.808Z,164.43
2023-05-05T08:53:36.785Z,152.33
2023-05-05T08:54:37.062Z,160.05
2023-05-05T08:55:36.834Z,146.85
2023-05-05T08:56:36.875Z,146.53
2023-05-05T08:57:36.919Z,140.25
2023-05-05T08:58:36.932Z,143.46
2023-05-05T08:59:36.983Z,149.80
2023-05-05T09:00:36.993Z,150.33
2023-05-05T09:01:37.177Z,146.06
2023-05-05T09:02:37.116Z,151.31
2023-05-05T09:03:37.085Z,153.73
2023-05-05T09:04:37.590Z,147.87
2023-05-05T09:05:37.167Z,126.38
2023-05-05T09:06:37.305Z,141.42
2023-05-05T09:07:37.178Z,154.03
2023-05-05T09:08:37.234Z,156.58
2023-05-05T09:09:37.237Z,141.77
2023-05-05T09:10:37.257Z,139.74
2023-05-05T09:11:37.263Z,133.84
2023-05-05T09:12:37.344Z,136.65
2023-05-05T09:13:37.334Z,148.03
2023-05-05T09:14:37.583Z,138.43
2023-05-05T09:15:37.370Z,144.18
2023-05-05T09:16:37.405Z,146.32
2023-05-05T09:17:37.423Z,145.37
2023-05-05T09:18:37.438Z,110.83
2023-05-05T09:19:37.445Z,125.40
2023-05-05T09:20:37.481Z,132.44
2023-05-05T09:21:37.493Z,130.38
2023-05-05T09:22:37.611Z,124.47
2023-05-05T09:23:37.544Z,121.30
2023-05-05T09:24:37.648Z,126.65
2023-05-05T09:25:37.571Z,109.22
2023-05-05T09:26:37.594Z,108.64
2023-05-05T09:27:37.615Z,113.49
2023-05-05T09:28:37.606Z,107.75
2023-05-05T09:29:37.618Z,121.41
2023-05-05T09:30:37.710Z,105.05
2023-05-05T09:31:37.673Z,91.95
2023-05-05T09:32:37.700Z,111.31
2023-05-05T09:33:37.670Z,123.77
2023-05-05T09:34:38.118Z,122.04
2023-05-05T09:35:37.690Z,118.68
2023-05-05T09:36:37.665Z,100.23
2023-05-05T09:37:37.695Z,103.43
2023-05-05T09:38:37.743Z,101.04
2023-05-05T09:39:38.076Z,97.75
2023-05-05T09:40:37.701Z,106.79
2023-05-05T09:41:37.731Z,121.26
2023-05-05T09:42:37.672Z,104.95
2023-05-05T09:43:37.685Z,100.53
2023-05-05T09:44:38.114Z,94.82
2023-05-05T09:45:37.699Z,92.36
2023-05-05T09:46:37.778Z,114.30
2023-05-05T09:47:37.810Z,124.65
2023-05-05T09:48:37.710Z,131.48
2023-05-05T09:49:38.121Z,137.13
2023-05-05T09:50:37.731Z,137.42
2023-05-05T09:51:37.785Z,138.57
2023-05-05T09:52:37.748Z,143.84
2023-05-05T09:53:37.707Z,143.63
2023-05-05T09:54:37.726Z,146.23
2023-05-05T09:55:37.736Z,144.23
2023-05-05T09:56:37.769Z,145.75
2023-05-05T09:57:37.757Z,141.56
2023-05-05T09:58:37.846Z,144.56
2023-05-05T09:59:37.855Z,140.60
2023-05-05T10:00:37.816Z,141.47
2023-05-05T10:01:37.927Z,139.23
2023-05-05T10:02:37.974Z,138.29
2023-05-05T10:03:37.934Z,137.18
2023-05-05T10:04:37.970Z,133.97
2023-05-05T10:05:38.012Z,135.23
2023-05-05T10:06:38.039Z,131.60
2023-05-05T10:07:38.062Z,132.02
2023-05-05T10:08:38.122Z,130.50
2023-05-05T10:09:38.130Z,130.65
2023-05-05T10:10:38.245Z,133.11
2023-05-05T10:11:38.200Z,127.77
2023-05-05T10:12:38.344Z,126.74
2023-05-05T10:13:38.310Z,127.86
2023-05-05T10:14:38.598Z,124.29
2023-05-05T10:15:38.413Z,123.64
2023-05-05T10:16:38.512Z,121.05
2023-05-05T10:17:38.524Z,121.06
2023-05-05T10:18:38.626Z,122.34
2023-05-05T10:19:39.108Z,118.95
2023-05-05T10:20:38.751Z,119.83
2023-05-05T10:21:40.885Z,120.57
2023-05-05T10:22:38.712Z,118.10
2023-05-05T10:23:38.709Z,117.90
2023-05-05T10:24:38.718Z,116.41
2023-05-05T10:25:38.668Z,113.95
2023-05-05T10:26:38.788Z,114.69
2023-05-05T10:27:38.664Z,112.83
2023-05-05T10:28:38.670Z,113.49
2023-05-05T10:29:39.138Z,111.70
2023-05-05T10:30:38.668Z,113.95
2023-05-05T10:31:38.722Z,110.30
2023-05-05T10:33:38.757Z,111.19
2023-05-05T10:34:39.151Z,110.58
2023-05-05T10:35:38.616Z,110.22
2023-05-05T10:36:38.629Z,106.76
2023-05-05T10:37:38.637Z,108.07
2023-05-05T10:38:38.597Z,106.00
2023-05-05T10:39:38.608Z,105.15
2023-05-05T10:40:38.568Z,103.82
2023-05-05T10:41:38.612Z,104.49
2023-05-05T10:42:38.635Z,104.85
2023-05-05T10:43:38.574Z,104.02
2023-05-05T10:44:38.636Z,92.89
2023-05-05T10:45:38.718Z,90.51
2023-05-05T10:46:38.660Z,94.89
2023-05-05T10:47:38.576Z,95.70
2023-05-05T10:48:38.609Z,96.74
2023-05-05T10:49:38.626Z,98.52
2023-05-05T10:50:38.546Z,94.25
2023-05-05T10:52:38.548Z,98.20
2023-05-05T10:53:38.539Z,96.73
2023-05-05T10:54:38.708Z,95.21
2023-05-05T10:55:38.461Z,96.39
2023-05-05T10:56:38.482Z,95.68
2023-05-05T10:57:38.480Z,93.75
2023-05-05T10:58:55.632Z,95.12
2023-05-05T10:59:39.650Z,95.36
2023-05-05T11:00:38.440Z,95.32
2023-05-05T11:01:38.533Z,92.36
2023-05-05T11:02:38.481Z,96.02
2023-05-05T11:03:38.474Z,92.42
2023-05-05T11:04:38.412Z,91.21
2023-05-05T11:05:38.388Z,91.32
2023-05-05T11:06:38.396Z,90.80
2023-05-05T11:07:38.369Z,88.21
2023-05-05T11:08:38.404Z,88.79
2023-05-05T11:09:38.391Z,87.02
2023-05-05T11:10:38.352Z,88.44
2023-05-05T11:11:38.401Z,87.23
2023-05-05T11:12:39.063Z,85.92
2023-05-05T11:13:38.455Z,83.71
2023-05-05T11:14:38.605Z,85.54
2023-05-05T11:15:38.504Z,88.26
2023-05-05T11:16:38.619Z,88.69
2023-05-05T11:17:38.600Z,89.35
2023-05-05T11:18:38.656Z,90.30
2023-05-05T11:19:38.641Z,92.13
2023-05-05T11:20:38.649Z,92.83
2023-05-05T11:21:38.689Z,92.78
2023-05-05T11:22:38.716Z,92.84
2023-05-05T11:23:38.750Z,95.05
2023-05-05T11:24:39.173Z,94.85
2023-05-05T11:25:38.803Z,95.73
2023-05-05T11:26:38.845Z,98.36
2023-05-05T11:27:38.856Z,101.06
2023-05-05T11:28:38.889Z,101.20
2023-05-05T11:29:38.901Z,101.70
2023-05-05T11:30:39.049Z,103.07
2023-05-05T11:31:39.103Z,103.38
2023-05-05T11:32:38.999Z,103.97
2023-05-05T11:33:39.045Z,104.27
2023-05-05T11:34:39.068Z,101.55
2023-05-05T11:35:39.086Z,101.23
2023-05-05T11:36:39.157Z,101.96
2023-05-05T11:37:39.159Z,102.64
2023-05-05T11:38:39.243Z,103.06
2023-05-05T11:39:39.369Z,104.21
2023-05-05T11:40:39.289Z,103.75
2023-05-05T11:41:39.327Z,104.60
2023-05-05T11:42:39.354Z,105.43
2023-05-05T11:43:39.414Z,102.87
2023-05-05T11:44:39.465Z,101.88
2023-05-05T11:45:39.490Z,100.70
2023-05-05T11:46:39.746Z,99.72
2023-05-05T11:47:39.639Z,98.65
2023-05-05T11:48:39.649Z,97.31
2023-05-05T11:49:39.692Z,92.64
2023-05-05T11:50:39.727Z,94.11
2023-05-05T11:51:39.737Z,93.41
2023-05-05T11:52:39.773Z,89.68
2023-05-05T11:53:39.765Z,88.47
2023-05-05T11:54:40.191Z,88.57
2023-05-05T11:55:39.875Z,88.27
2023-05-05T11:56:39.870Z,89.49
2023-05-05T11:57:39.950Z,89.31
2023-05-05T11:58:39.957Z,91.01
2023-05-05T11:59:39.972Z,90.95
2023-05-05T12:00:40.178Z,90.79
2023-05-05T12:01:40.082Z,89.53
2023-05-05T12:02:40.228Z,87.71
2023-05-05T12:03:40.293Z,90.19
2023-05-05T12:04:40.196Z,91.91
2023-05-05T12:05:40.681Z,95.39
2023-05-05T12:06:40.209Z,93.38
2023-05-05T12:07:40.259Z,94.26
2023-05-05T12:08:40.311Z,96.25
2023-05-05T12:09:40.289Z,95.51
2023-05-05T12:10:40.685Z,95.90
2023-05-05T12:11:40.370Z,95.75
2023-05-05T12:12:40.470Z,96.45
2023-05-05T12:13:40.400Z,97.37
2023-05-05T12:14:40.452Z,96.70
2023-05-05T12:15:40.681Z,95.30
2023-05-05T12:16:40.576Z,98.32
2023-05-05T12:17:40.580Z,96.13
2023-05-05T12:18:40.537Z,95.88
2023-05-05T12:19:40.588Z,97.54
2023-05-05T12:20:40.678Z,96.89
2023-05-05T12:21:40.662Z,92.96
2023-05-05T12:22:40.679Z,89.34
2023-05-05T12:23:40.664Z,89.37
2023-05-05T12:24:40.725Z,93.89
2023-05-05T12:25:41.192Z,92.06
2023-05-05T12:26:40.809Z,95.44
2023-05-05T12:27:40.831Z,93.29
2023-05-05T12:28:40.838Z,93.41
2023-05-05T12:29:40.891Z,89.85
2023-05-05T12:30:41.222Z,92.41
2023-05-05T12:31:40.936Z,92.48
2023-05-05T12:32:41.057Z,92.05
2023-05-05T12:33:41.006Z,91.53
2023-05-05T12:34:41.106Z,91.52
2023-05-05T12:35:41.192Z,88.82
2023-05-05T12:36:41.099Z,88.44
2023-05-05T12:37:41.106Z,87.14
2023-05-05T12:38:41.158Z,88.74
2023-05-05T12:39:41.223Z,87.24
2023-05-05T12:40:41.727Z,85.05
2023-05-05T12:41:41.275Z,87.46
2023-05-05T12:42:41.379Z,87.91
2023-05-05T12:43:41.351Z,83.75
2023-05-05T12:44:41.390Z,82.86
2023-05-05T12:45:41.809Z,84.58